sensor_id;sensor_type;location;lat;lon;timestamp;P1;durP1;ratioP1;P2;durP2;ratioP2
16593;SDS011;8410;52.532;13.336;2022-08-19T00:01:56;11.48;;;10.40;;
16593;SDS011;8410;52.532;13.336;2022-08-19T00:04:27;13.60;;;12.32;;
16593;SDS011;8410;52.532;13.336;2022-08-19T00:07:00;12.45;;;11.35;;
16593;SDS011;8410;52.532;13.336;2022-08-19T00:09:28;10.95;;;10.00;;
16593;SDS011;8410;52.532;13.336;2022-08-19T00:11:56;10.70;;;9.75;;
16593;SDS011;8410;52.532;13.336;2022-08-19T00:14:27;12.07;;;11.00;;
16593;SDS011;8410;52.532;13.336;2022-08-19T00:16:57;10.43;;;9.63;;
16593;SDS011;8410;52.532;13.336;2022-08-19T00:19:27;11.07;;;10.13;;
16593;SDS011;8410;52.532;13.336;2022-08-19T00:21:55;10.00;;;9.27;;
16593;SDS011;8410;52.532;13.336;2022-08-19T00:24:24;12.55;;;11.52;;
16593;SDS011;8410;52.532;13.336;2022-08-19T00:26:54;12.23;;;11.32;;
16593;SDS011;8410;52.532;13.336;2022-08-19T00:29:43;11.25;;;10.35;;
16593;SDS011;8410;52.532;13.336;2022-08-19T00:32:17;11.60;;;10.70;;
16593;SDS011;8410;52.532;13.336;2022-08-19T00:34:46;12.98;;;11.88;;
16593;SDS011;8410;52.532;13.336;2022-08-19T00:37:14;13.43;;;12.32;;
16593;SDS011;8410;52.532;13.336;2022-08-19T00:39:43;12.68;;;11.57;;
16593;SDS011;8410;52.532;13.336;2022-08-19T00:42:14;12.00;;;11.02;;
16593;SDS011;8410;52.532;13.336;2022-08-19T00:44:42;11.93;;;10.93;;
16593;SDS011;8410;52.532;13.336;2022-08-19T00:47:10;12.13;;;11.13;;
16593;SDS011;8410;52.532;13.336;2022-08-19T00:49:41;12.45;;;11.35;;
16593;SDS011;8410;52.532;13.336;2022-08-19T00:52:18;11.25;;;10.35;;
16593;SDS011;8410;52.532;13.336;2022-08-19T00:54:56;12.40;;;11.38;;
16593;SDS011;8410;52.532;13.336;2022-08-19T00:57:27;13.73;;;12.52;;
16593;SDS011;8410;52.532;13.336;2022-08-19T01:00:04;14.10;;;12.85;;
16593;SDS011;8410;52.532;13.336;2022-08-19T01:02:34;11.95;;;10.93;;
16593;SDS011;8410;52.532;13.336;2022-08-19T01:05:04;13.30;;;12.27;;
16593;SDS011;8410;52.532;13.336;2022-08-19T01:07:37;13.70;;;12.57;;
16593;SDS011;8410;52.532;13.336;2022-08-19T01:10:10;13.35;;;12.05;;
16593;SDS011;8410;52.532;13.336;2022-08-19T01:12:45;12.95;;;11.90;;
16593;SDS011;8410;52.532;13.336;2022-08-19T01:15:15;12.90;;;11.77;;
16593;SDS011;8410;52.532;13.336;2022-08-19T01:17:48;13.35;;;11.98;;
16593;SDS011;8410;52.532;13.336;2022-08-19T01:20:19;13.02;;;11.77;;
16593;SDS011;8410;52.532;13.336;2022-08-19T01:22:51;12.30;;;11.30;;
16593;SDS011;8410;52.532;13.336;2022-08-19T01:25:22;13.35;;;12.27;;
16593;SDS011;8410;52.532;13.336;2022-08-19T01:27:58;13.30;;;12.20;;
16593;SDS011;8410;52.532;13.336;2022-08-19T01:30:36;13.77;;;12.68;;
16593;SDS011;8410;52.532;13.336;2022-08-19T01:33:09;11.65;;;10.75;;
16593;SDS011;8410;52.532;13.336;2022-08-19T01:35:38;13.57;;;12.48;;
16593;SDS011;8410;52.532;13.336;2022-08-19T01:38:10;13.75;;;12.55;;
16593;SDS011;8410;52.532;13.336;2022-08-19T01:40:47;13.52;;;12.43;;
16593;SDS011;8410;52.532;13.336;2022-08-19T01:43:15;12.30;;;11.38;;
16593;SDS011;8410;52.532;13.336;2022-08-19T01:45:45;12.27;;;11.38;;
16593;SDS011;8410;52.532;13.336;2022-08-19T01:48:13;11.13;;;10.02;;
16593;SDS011;8410;52.532;13.336;2022-08-19T01:50:41;10.85;;;10.00;;
16593;SDS011;8410;52.532;13.336;2022-08-19T01:53:11;12.43;;;11.32;;
16593;SDS011;8410;52.532;13.336;2022-08-19T01:55:41;12.30;;;11.38;;
16593;SDS011;8410;52.532;13.336;2022-08-19T01:58:11;12.90;;;11.90;;
16593;SDS011;8410;52.532;13.336;2022-08-19T02:00:44;11.55;;;10.48;;
16593;SDS011;8410;52.532;13.336;2022-08-19T02:03:13;11.70;;;10.70;;
16593;SDS011;8410;52.532;13.336;2022-08-19T02:05:42;10.88;;;10.05;;
16593;SDS011;8410;52.532;13.336;2022-08-19T02:08:13;11.18;;;10.30;;
16593;SDS011;8410;52.532;13.336;2022-08-19T02:10:41;12.05;;;11.10;;
16593;SDS011;8410;52.532;13.336;2022-08-19T02:13:11;11.80;;;10.90;;
16593;SDS011;8410;52.532;13.336;2022-08-19T02:15:40;12.20;;;11.15;;
16593;SDS011;8410;52.532;13.336;2022-08-19T02:18:09;10.95;;;9.95;;
16593;SDS011;8410;52.532;13.336;2022-08-19T02:20:37;10.32;;;9.52;;
16593;SDS011;8410;52.532;13.336;2022-08-19T02:23:07;11.50;;;10.40;;
16593;SDS011;8410;52.532;13.336;2022-08-19T02:25:42;10.85;;;10.05;;
16593;SDS011;8410;52.532;13.336;2022-08-19T02:28:13;10.73;;;9.82;;
16593;SDS011;8410;52.532;13.336;2022-08-19T02:30:44;10.35;;;9.57;;
16593;SDS011;8410;52.532;13.336;2022-08-19T02:33:14;10.88;;;9.98;;
16593;SDS011;8410;52.532;13.336;2022-08-19T02:35:43;13.65;;;12.45;;
16593;SDS011;8410;52.532;13.336;2022-08-19T02:38:13;10.95;;;9.93;;
16593;SDS011;8410;52.532;13.336;2022-08-19T02:40:56;10.70;;;9.75;;
16593;SDS011;8410;52.532;13.336;2022-08-19T02:43:27;10.48;;;9.48;;
16593;SDS011;8410;52.532;13.336;2022-08-19T02:45:59;11.45;;;10.55;;
16593;SDS011;8410;52.532;13.336;2022-08-19T02:48:29;12.38;;;11.27;;
16593;SDS011;8410;52.532;13.336;2022-08-19T02:50:58;13.35;;;12.15;;
16593;SDS011;8410;52.532;13.336;2022-08-19T02:53:27;13.32;;;12.15;;
16593;SDS011;8410;52.532;13.336;2022-08-19T02:55:57;16.45;;;12.07;;
16593;SDS011;8410;52.532;13.336;2022-08-19T02:58:25;12.35;;;11.35;;
16593;SDS011;8410;52.532;13.336;2022-08-19T03:00:54;13.93;;;12.82;;
16593;SDS011;8410;52.532;13.336;2022-08-19T03:03:23;14.88;;;13.68;;
16593;SDS011;8410;52.532;13.336;2022-08-19T03:05:51;14.20;;;12.95;;
16593;SDS011;8410;52.532;13.336;2022-08-19T03:08:30;15.77;;;14.57;;
16593;SDS011;8410;52.532;13.336;2022-08-19T03:10:59;14.98;;;13.77;;
16593;SDS011;8410;52.532;13.336;2022-08-19T03:13:27;14.52;;;13.23;;
16593;SDS011;8410;52.532;13.336;2022-08-19T03:15:55;15.35;;;14.05;;
16593;SDS011;8410;52.532;13.336;2022-08-19T03:18:24;16.17;;;14.82;;
16593;SDS011;8410;52.532;13.336;2022-08-19T03:20:53;16.75;;;15.05;;
16593;SDS011;8410;52.532;13.336;2022-08-19T03:23:21;15.50;;;14.18;;
16593;SDS011;8410;52.532;13.336;2022-08-19T03:25:50;16.73;;;15.48;;
16593;SDS011;8410;52.532;13.336;2022-08-19T03:28:41;15.65;;;14.35;;
16593;SDS011;8410;52.532;13.336;2022-08-19T03:31:17;19.40;;;16.67;;
16593;SDS011;8410;52.532;13.336;2022-08-19T03:34:08;18.42;;;16.83;;
16593;SDS011;8410;52.532;13.336;2022-08-19T03:36:38;17.45;;;15.77;;
16593;SDS011;8410;52.532;13.336;2022-08-19T03:39:07;19.70;;;17.80;;
16593;SDS011;8410;52.532;13.336;2022-08-19T03:41:37;18.92;;;17.38;;
16593;SDS011;8410;52.532;13.336;2022-08-19T03:44:11;17.80;;;16.17;;
16593;SDS011;8410;52.532;13.336;2022-08-19T03:46:44;17.58;;;15.98;;
16593;SDS011;8410;52.532;13.336;2022-08-19T03:49:13;18.40;;;16.92;;
16593;SDS011;8410;52.532;13.336;2022-08-19T03:51:43;19.08;;;17.50;;
16593;SDS011;8410;52.532;13.336;2022-08-19T03:54:14;20.88;;;19.13;;
16593;SDS011;8410;52.532;13.336;2022-08-19T03:56:46;19.33;;;17.73;;
16593;SDS011;8410;52.532;13.336;2022-08-19T03:59:18;18.23;;;16.83;;
16593;SDS011;8410;52.532;13.336;2022-08-19T04:01:52;20.23;;;18.40;;
16593;SDS011;8410;52.532;13.336;2022-08-19T04:04:22;18.58;;;17.17;;
16593;SDS011;8410;52.532;13.336;2022-08-19T04:06:54;20.08;;;18.25;;
16593;SDS011;8410;52.532;13.336;2022-08-19T04:09:24;20.50;;;18.80;;
16593;SDS011;8410;52.532;13.336;2022-08-19T04:11:53;20.38;;;18.55;;
16593;SDS011;8410;52.532;13.336;2022-08-19T04:14:25;17.92;;;16.52;;
16593;SDS011;8410;52.532;13.336;2022-08-19T04:16:57;19.73;;;18.13;;
16593;SDS011;8410;52.532;13.336;2022-08-19T04:19:26;17.73;;;16.33;;
16593;SDS011;8410;52.532;13.336;2022-08-19T04:21:56;17.88;;;16.48;;
16593;SDS011;8410;52.532;13.336;2022-08-19T04:24:25;19.40;;;17.80;;
16593;SDS011;8410;52.532;13.336;2022-08-19T04:26:53;17.80;;;16.20;;
16593;SDS011;8410;52.532;13.336;2022-08-19T04:29:22;18.02;;;16.63;;
16593;SDS011;8410;52.532;13.336;2022-08-19T04:31:53;15.90;;;14.73;;
16593;SDS011;8410;52.532;13.336;2022-08-19T04:34:23;16.65;;;15.45;;
16593;SDS011;8410;52.532;13.336;2022-08-19T04:36:53;13.60;;;12.43;;
16593;SDS011;8410;52.532;13.336;2022-08-19T04:39:24;14.13;;;12.93;;
16593;SDS011;8410;52.532;13.336;2022-08-19T04:42:10;14.95;;;13.77;;
16593;SDS011;8410;52.532;13.336;2022-08-19T04:44:57;14.00;;;13.07;;
16593;SDS011;8410;52.532;13.336;2022-08-19T04:47:26;15.57;;;14.02;;
16593;SDS011;8410;52.532;13.336;2022-08-19T04:50:14;14.98;;;13.73;;
16593;SDS011;8410;52.532;13.336;2022-08-19T04:52:42;15.85;;;14.63;;
16593;SDS011;8410;52.532;13.336;2022-08-19T04:55:10;16.40;;;14.82;;
16593;SDS011;8410;52.532;13.336;2022-08-19T04:57:40;14.80;;;13.60;;
16593;SDS011;8410;52.532;13.336;2022-08-19T05:00:10;15.70;;;14.40;;
16593;SDS011;8410;52.532;13.336;2022-08-19T05:02:39;14.90;;;13.63;;
16593;SDS011;8410;52.532;13.336;2022-08-19T05:05:07;14.18;;;12.98;;
16593;SDS011;8410;52.532;13.336;2022-08-19T05:07:36;14.35;;;13.25;;
16593;SDS011;8410;52.532;13.336;2022-08-19T05:10:04;13.55;;;12.50;;
16593;SDS011;8410;52.532;13.336;2022-08-19T05:12:33;15.55;;;13.93;;
16593;SDS011;8410;52.532;13.336;2022-08-19T05:15:02;14.60;;;13.40;;
16593;SDS011;8410;52.532;13.336;2022-08-19T05:17:34;14.85;;;13.63;;
16593;SDS011;8410;52.532;13.336;2022-08-19T05:20:04;16.10;;;14.70;;
16593;SDS011;8410;52.532;13.336;2022-08-19T05:22:52;15.93;;;14.68;;
16593;SDS011;8410;52.532;13.336;2022-08-19T05:25:20;16.13;;;14.77;;
16593;SDS011;8410;52.532;13.336;2022-08-19T05:27:51;13.90;;;12.65;;
16593;SDS011;8410;52.532;13.336;2022-08-19T05:30:19;15.02;;;13.68;;
16593;SDS011;8410;52.532;13.336;2022-08-19T05:33:08;14.82;;;13.43;;
16593;SDS011;8410;52.532;13.336;2022-08-19T05:35:37;15.55;;;14.35;;
16593;SDS011;8410;52.532;13.336;2022-08-19T05:38:07;14.30;;;13.20;;
16593;SDS011;8410;52.532;13.336;2022-08-19T05:40:35;15.20;;;14.00;;
16593;SDS011;8410;52.532;13.336;2022-08-19T05:43:05;14.55;;;13.25;;
16593;SDS011;8410;52.532;13.336;2022-08-19T05:45:37;13.93;;;12.73;;
16593;SDS011;8410;52.532;13.336;2022-08-19T05:48:09;14.73;;;13.57;;
16593;SDS011;8410;52.532;13.336;2022-08-19T05:50:38;14.65;;;13.40;;
16593;SDS011;8410;52.532;13.336;2022-08-19T05:53:08;14.23;;;13.13;;
16593;SDS011;8410;52.532;13.336;2022-08-19T05:55:36;16.15;;;14.75;;
16593;SDS011;8410;52.532;13.336;2022-08-19T05:58:05;15.25;;;13.93;;
16593;SDS011;8410;52.532;13.336;2022-08-19T06:00:34;14.13;;;13.02;;
16593;SDS011;8410;52.532;13.336;2022-08-19T06:03:02;15.85;;;14.15;;
16593;SDS011;8410;52.532;13.336;2022-08-19T06:05:39;13.40;;;12.40;;
16593;SDS011;8410;52.532;13.336;2022-08-19T06:08:17;13.98;;;12.77;;
16593;SDS011;8410;52.532;13.336;2022-08-19T06:11:11;14.10;;;12.80;;
16593;SDS011;8410;52.532;13.336;2022-08-19T06:13:43;15.68;;;14.35;;
16593;SDS011;8410;52.532;13.336;2022-08-19T06:16:13;13.95;;;12.75;;
16593;SDS011;8410;52.532;13.336;2022-08-19T06:18:45;15.75;;;14.45;;
16593;SDS011;8410;52.532;13.336;2022-08-19T06:21:14;15.00;;;13.70;;
16593;SDS011;8410;52.532;13.336;2022-08-19T06:23:42;15.45;;;14.02;;
16593;SDS011;8410;52.532;13.336;2022-08-19T06:26:11;16.58;;;15.02;;
16593;SDS011;8410;52.532;13.336;2022-08-19T06:28:39;15.68;;;14.48;;
16593;SDS011;8410;52.532;13.336;2022-08-19T06:31:11;16.67;;;15.27;;
16593;SDS011;8410;52.532;13.336;2022-08-19T06:33:40;15.50;;;14.27;;
16593;SDS011;8410;52.532;13.336;2022-08-19T06:36:16;15.75;;;14.60;;
16593;SDS011;8410;52.532;13.336;2022-08-19T06:38:53;17.73;;;16.10;;
16593;SDS011;8410;52.532;13.336;2022-08-19T06:41:22;15.63;;;14.50;;
16593;SDS011;8410;52.532;13.336;2022-08-19T06:43:51;18.02;;;16.10;;
16593;SDS011;8410;52.532;13.336;2022-08-19T06:46:22;17.58;;;16.30;;
16593;SDS011;8410;52.532;13.336;2022-08-19T06:48:51;16.48;;;15.18;;
16593;SDS011;8410;52.532;13.336;2022-08-19T06:51:21;15.90;;;14.48;;
16593;SDS011;8410;52.532;13.336;2022-08-19T06:53:55;16.10;;;14.70;;
16593;SDS011;8410;52.532;13.336;2022-08-19T06:56:24;17.20;;;15.90;;
16593;SDS011;8410;52.532;13.336;2022-08-19T06:58:57;16.23;;;14.60;;
16593;SDS011;8410;52.532;13.336;2022-08-19T07:01:25;17.30;;;15.60;;
16593;SDS011;8410;52.532;13.336;2022-08-19T07:03:53;18.55;;;16.73;;
16593;SDS011;8410;52.532;13.336;2022-08-19T07:06:24;19.20;;;17.40;;
16593;SDS011;8410;52.532;13.336;2022-08-19T07:09:10;15.13;;;13.90;;
16593;SDS011;8410;52.532;13.336;2022-08-19T07:11:44;17.33;;;16.00;;
16593;SDS011;8410;52.532;13.336;2022-08-19T07:14:14;17.13;;;15.60;;
16593;SDS011;8410;52.532;13.336;2022-08-19T07:16:45;16.70;;;15.32;;
16593;SDS011;8410;52.532;13.336;2022-08-19T07:19:16;16.52;;;15.32;;
16593;SDS011;8410;52.532;13.336;2022-08-19T07:21:47;18.98;;;17.42;;
16593;SDS011;8410;52.532;13.336;2022-08-19T07:24:19;18.02;;;16.52;;
16593;SDS011;8410;52.532;13.336;2022-08-19T07:26:50;18.45;;;16.65;;
16593;SDS011;8410;52.532;13.336;2022-08-19T07:29:20;19.38;;;17.67;;
16593;SDS011;8410;52.532;13.336;2022-08-19T07:31:53;18.92;;;17.23;;
16593;SDS011;8410;52.532;13.336;2022-08-19T07:34:26;19.83;;;18.20;;
16593;SDS011;8410;52.532;13.336;2022-08-19T07:36:57;19.33;;;17.73;;
16593;SDS011;8410;52.532;13.336;2022-08-19T07:39:26;19.75;;;18.17;;
16593;SDS011;8410;52.532;13.336;2022-08-19T07:41:59;19.58;;;18.00;;
16593;SDS011;8410;52.532;13.336;2022-08-19T07:44:32;18.73;;;17.20;;
16593;SDS011;8410;52.532;13.336;2022-08-19T07:47:01;17.50;;;15.88;;
16593;SDS011;8410;52.532;13.336;2022-08-19T07:49:30;20.83;;;18.70;;
16593;SDS011;8410;52.532;13.336;2022-08-19T07:52:00;19.50;;;17.90;;
16593;SDS011;8410;52.532;13.336;2022-08-19T07:54:33;16.40;;;15.00;;
16593;SDS011;8410;52.532;13.336;2022-08-19T07:57:05;19.15;;;17.40;;
16593;SDS011;8410;52.532;13.336;2022-08-19T07:59:34;18.35;;;16.60;;
16593;SDS011;8410;52.532;13.336;2022-08-19T08:02:02;19.05;;;15.52;;
16593;SDS011;8410;52.532;13.336;2022-08-19T08:04:31;17.42;;;15.93;;
16593;SDS011;8410;52.532;13.336;2022-08-19T08:07:18;17.70;;;16.15;;
16593;SDS011;8410;52.532;13.336;2022-08-19T08:10:05;19.90;;;17.95;;
16593;SDS011;8410;52.532;13.336;2022-08-19T08:12:46;16.77;;;15.10;;
16593;SDS011;8410;52.532;13.336;2022-08-19T08:15:34;17.80;;;16.25;;
16593;SDS011;8410;52.532;13.336;2022-08-19T08:18:08;20.70;;;18.88;;
16593;SDS011;8410;52.532;13.336;2022-08-19T08:20:36;19.10;;;17.52;;
16593;SDS011;8410;52.532;13.336;2022-08-19T08:23:06;21.55;;;19.27;;
16593;SDS011;8410;52.532;13.336;2022-08-19T08:25:52;21.67;;;19.40;;
16593;SDS011;8410;52.532;13.336;2022-08-19T08:28:24;18.00;;;16.35;;
16593;SDS011;8410;52.532;13.336;2022-08-19T08:30:55;18.35;;;16.63;;
16593;SDS011;8410;52.532;13.336;2022-08-19T08:33:26;22.08;;;20.27;;
16593;SDS011;8410;52.532;13.336;2022-08-19T08:36:00;22.05;;;20.13;;
16593;SDS011;8410;52.532;13.336;2022-08-19T08:38:30;18.50;;;16.75;;
16593;SDS011;8410;52.532;13.336;2022-08-19T08:41:06;17.90;;;16.27;;
16593;SDS011;8410;52.532;13.336;2022-08-19T08:43:46;21.70;;;19.73;;
16593;SDS011;8410;52.532;13.336;2022-08-19T08:46:19;19.35;;;17.95;;
16593;SDS011;8410;52.532;13.336;2022-08-19T08:48:59;18.13;;;16.38;;
16593;SDS011;8410;52.532;13.336;2022-08-19T08:51:36;19.60;;;16.85;;
16593;SDS011;8410;52.532;13.336;2022-08-19T08:54:14;21.70;;;19.88;;
16593;SDS011;8410;52.532;13.336;2022-08-19T08:56:47;19.63;;;18.00;;
16593;SDS011;8410;52.532;13.336;2022-08-19T08:59:21;19.52;;;17.85;;
16593;SDS011;8410;52.532;13.336;2022-08-19T09:01:58;18.13;;;16.27;;
16593;SDS011;8410;52.532;13.336;2022-08-19T09:04:27;18.65;;;16.92;;
16593;SDS011;8410;52.532;13.336;2022-08-19T09:06:57;18.52;;;16.80;;
16593;SDS011;8410;52.532;13.336;2022-08-19T09:10:04;18.55;;;16.95;;
16593;SDS011;8410;52.532;13.336;2022-08-19T09:12:45;18.45;;;16.88;;
16593;SDS011;8410;52.532;13.336;2022-08-19T09:15:36;16.73;;;15.40;;
16593;SDS011;8410;52.532;13.336;2022-08-19T09:18:12;18.00;;;16.17;;
16593;SDS011;8410;52.532;13.336;2022-08-19T09:20:44;17.60;;;16.20;;
16593;SDS011;8410;52.532;13.336;2022-08-19T09:23:14;17.08;;;15.60;;
16593;SDS011;8410;52.532;13.336;2022-08-19T09:25:43;16.77;;;15.38;;
16593;SDS011;8410;52.532;13.336;2022-08-19T09:28:11;16.85;;;15.25;;
16593;SDS011;8410;52.532;13.336;2022-08-19T09:30:47;21.00;;;18.88;;
16593;SDS011;8410;52.532;13.336;2022-08-19T09:33:18;18.58;;;16.33;;
16593;SDS011;8410;52.532;13.336;2022-08-19T09:35:46;17.30;;;15.80;;
16593;SDS011;8410;52.532;13.336;2022-08-19T09:38:19;17.08;;;15.27;;
16593;SDS011;8410;52.532;13.336;2022-08-19T09:40:48;18.90;;;16.35;;
16593;SDS011;8410;52.532;13.336;2022-08-19T09:43:16;17.40;;;16.10;;
16593;SDS011;8410;52.532;13.336;2022-08-19T09:45:59;15.90;;;14.57;;
16593;SDS011;8410;52.532;13.336;2022-08-19T09:48:27;15.70;;;14.18;;
16593;SDS011;8410;52.532;13.336;2022-08-19T09:51:01;28.90;;;16.15;;
16593;SDS011;8410;52.532;13.336;2022-08-19T09:53:30;16.38;;;14.85;;
16593;SDS011;8410;52.532;13.336;2022-08-19T09:56:00;16.58;;;14.95;;
16593;SDS011;8410;52.532;13.336;2022-08-19T09:58:29;15.57;;;14.52;;
16593;SDS011;8410;52.532;13.336;2022-08-19T10:00:58;16.60;;;15.20;;
16593;SDS011;8410;52.532;13.336;2022-08-19T10:03:30;15.52;;;14.07;;
16593;SDS011;8410;52.532;13.336;2022-08-19T10:06:00;15.85;;;14.57;;
16593;SDS011;8410;52.532;13.336;2022-08-19T10:08:42;16.40;;;15.02;;
16593;SDS011;8410;52.532;13.336;2022-08-19T10:11:17;15.15;;;14.05;;
16593;SDS011;8410;52.532;13.336;2022-08-19T10:14:04;15.43;;;14.13;;
16593;SDS011;8410;52.532;13.336;2022-08-19T10:16:33;16.17;;;14.88;;
16593;SDS011;8410;52.532;13.336;2022-08-19T10:19:05;15.48;;;14.18;;
16593;SDS011;8410;52.532;13.336;2022-08-19T10:21:33;17.88;;;16.08;;
16593;SDS011;8410;52.532;13.336;2022-08-19T10:24:02;17.58;;;16.27;;
16593;SDS011;8410;52.532;13.336;2022-08-19T10:26:37;18.88;;;17.30;;
16593;SDS011;8410;52.532;13.336;2022-08-19T10:29:08;18.48;;;16.85;;
16593;SDS011;8410;52.532;13.336;2022-08-19T10:31:36;18.55;;;17.02;;
16593;SDS011;8410;52.532;13.336;2022-08-19T10:34:24;18.10;;;16.80;;
16593;SDS011;8410;52.532;13.336;2022-08-19T10:36:53;18.00;;;16.60;;
16593;SDS011;8410;52.532;13.336;2022-08-19T10:39:27;17.20;;;15.70;;
16593;SDS011;8410;52.532;13.336;2022-08-19T10:42:07;16.85;;;15.45;;
16593;SDS011;8410;52.532;13.336;2022-08-19T10:44:36;16.85;;;15.10;;
16593;SDS011;8410;52.532;13.336;2022-08-19T10:47:04;17.90;;;16.42;;
16593;SDS011;8410;52.532;13.336;2022-08-19T10:49:50;18.92;;;17.33;;
16593;SDS011;8410;52.532;13.336;2022-08-19T10:52:37;18.17;;;16.77;;
16593;SDS011;8410;52.532;13.336;2022-08-19T10:55:15;18.40;;;16.75;;
16593;SDS011;8410;52.532;13.336;2022-08-19T10:58:10;23.88;;;18.23;;
16593;SDS011;8410;52.532;13.336;2022-08-19T11:00:40;17.50;;;16.23;;
16593;SDS011;8410;52.532;13.336;2022-08-19T11:03:09;18.80;;;17.17;;
16593;SDS011;8410;52.532;13.336;2022-08-19T11:05:38;15.93;;;14.73;;
16593;SDS011;8410;52.532;13.336;2022-08-19T11:08:07;17.65;;;16.25;;
16593;SDS011;8410;52.532;13.336;2022-08-19T11:10:49;18.27;;;16.88;;
16593;SDS011;8410;52.532;13.336;2022-08-19T11:13:21;17.25;;;15.73;;
16593;SDS011;8410;52.532;13.336;2022-08-19T11:15:57;17.08;;;15.77;;
16593;SDS011;8410;52.532;13.336;2022-08-19T11:18:32;17.45;;;16.08;;
16593;SDS011;8410;52.532;13.336;2022-08-19T11:21:06;16.17;;;14.80;;
16593;SDS011;8410;52.532;13.336;2022-08-19T11:23:40;16.10;;;14.70;;
16593;SDS011;8410;52.532;13.336;2022-08-19T11:26:08;16.85;;;15.38;;
16593;SDS011;8410;52.532;13.336;2022-08-19T11:28:37;15.93;;;14.48;;
16593;SDS011;8410;52.532;13.336;2022-08-19T11:31:09;15.73;;;14.60;;
16593;SDS011;8410;52.532;13.336;2022-08-19T11:33:38;14.88;;;13.77;;
16593;SDS011;8410;52.532;13.336;2022-08-19T11:36:13;16.02;;;14.63;;
16593;SDS011;8410;52.532;13.336;2022-08-19T11:38:42;14.38;;;13.38;;
16593;SDS011;8410;52.532;13.336;2022-08-19T11:41:10;14.75;;;13.38;;
16593;SDS011;8410;52.532;13.336;2022-08-19T11:43:40;14.73;;;13.30;;
16593;SDS011;8410;52.532;13.336;2022-08-19T11:46:08;14.88;;;13.60;;
16593;SDS011;8410;52.532;13.336;2022-08-19T11:48:40;13.43;;;12.38;;
16593;SDS011;8410;52.532;13.336;2022-08-19T11:51:10;16.35;;;15.05;;
16593;SDS011;8410;52.532;13.336;2022-08-19T11:53:41;13.77;;;12.68;;
16593;SDS011;8410;52.532;13.336;2022-08-19T11:56:09;14.35;;;13.23;;
16593;SDS011;8410;52.532;13.336;2022-08-19T11:58:40;13.18;;;12.07;;
16593;SDS011;8410;52.532;13.336;2022-08-19T12:01:10;13.10;;;12.00;;
16593;SDS011;8410;52.532;13.336;2022-08-19T12:03:41;13.65;;;12.60;;
16593;SDS011;8410;52.532;13.336;2022-08-19T12:06:13;13.20;;;12.15;;
16593;SDS011;8410;52.532;13.336;2022-08-19T12:08:45;13.10;;;12.00;;
16593;SDS011;8410;52.532;13.336;2022-08-19T12:11:14;13.13;;;11.88;;
16593;SDS011;8410;52.532;13.336;2022-08-19T12:13:44;12.52;;;11.32;;
16593;SDS011;8410;52.532;13.336;2022-08-19T12:16:13;13.63;;;12.38;;
16593;SDS011;8410;52.532;13.336;2022-08-19T12:18:44;12.40;;;11.40;;
16593;SDS011;8410;52.532;13.336;2022-08-19T12:21:13;12.13;;;11.18;;
16593;SDS011;8410;52.532;13.336;2022-08-19T12:23:42;12.10;;;10.60;;
16593;SDS011;8410;52.532;13.336;2022-08-19T12:26:12;11.43;;;10.48;;
16593;SDS011;8410;52.532;13.336;2022-08-19T12:28:40;10.98;;;10.07;;
16593;SDS011;8410;52.532;13.336;2022-08-19T12:31:10;12.23;;;10.93;;
16593;SDS011;8410;52.532;13.336;2022-08-19T12:33:38;13.25;;;11.90;;
16593;SDS011;8410;52.532;13.336;2022-08-19T12:36:08;11.00;;;10.05;;
16593;SDS011;8410;52.532;13.336;2022-08-19T12:38:39;11.10;;;10.20;;
16593;SDS011;8410;52.532;13.336;2022-08-19T12:41:09;11.60;;;10.65;;
16593;SDS011;8410;52.532;13.336;2022-08-19T12:43:41;11.52;;;10.60;;
16593;SDS011;8410;52.532;13.336;2022-08-19T12:46:10;11.55;;;10.55;;
16593;SDS011;8410;52.532;13.336;2022-08-19T12:48:42;10.88;;;10.13;;
16593;SDS011;8410;52.532;13.336;2022-08-19T12:51:12;11.77;;;10.50;;
16593;SDS011;8410;52.532;13.336;2022-08-19T12:53:44;12.13;;;10.98;;
16593;SDS011;8410;52.532;13.336;2022-08-19T12:56:12;11.43;;;10.30;;
16593;SDS011;8410;52.532;13.336;2022-08-19T12:58:48;11.93;;;10.82;;
16593;SDS011;8410;52.532;13.336;2022-08-19T13:01:19;12.90;;;11.77;;
16593;SDS011;8410;52.532;13.336;2022-08-19T13:03:48;12.68;;;11.45;;
16593;SDS011;8410;52.532;13.336;2022-08-19T13:06:18;12.00;;;11.02;;
16593;SDS011;8410;52.532;13.336;2022-08-19T13:08:48;12.75;;;11.65;;
16593;SDS011;8410;52.532;13.336;2022-08-19T13:11:21;12.85;;;11.68;;
16593;SDS011;8410;52.532;13.336;2022-08-19T13:13:51;13.48;;;11.75;;
16593;SDS011;8410;52.532;13.336;2022-08-19T13:16:22;13.43;;;12.10;;
16593;SDS011;8410;52.532;13.336;2022-08-19T13:18:50;13.45;;;11.95;;
16593;SDS011;8410;52.532;13.336;2022-08-19T13:21:19;13.23;;;11.90;;
16593;SDS011;8410;52.532;13.336;2022-08-19T13:23:50;13.38;;;12.27;;
16593;SDS011;8410;52.532;13.336;2022-08-19T13:26:19;14.60;;;13.20;;
16593;SDS011;8410;52.532;13.336;2022-08-19T13:28:48;14.32;;;13.13;;
16593;SDS011;8410;52.532;13.336;2022-08-19T13:31:36;14.65;;;12.95;;
16593;SDS011;8410;52.532;13.336;2022-08-19T13:34:26;14.10;;;12.77;;
16593;SDS011;8410;52.532;13.336;2022-08-19T13:36:59;13.65;;;12.48;;
16593;SDS011;8410;52.532;13.336;2022-08-19T13:39:29;13.38;;;12.27;;
16593;SDS011;8410;52.532;13.336;2022-08-19T13:41:58;12.48;;;11.48;;
16593;SDS011;8410;52.532;13.336;2022-08-19T13:44:28;13.15;;;12.10;;
16593;SDS011;8410;52.532;13.336;2022-08-19T13:47:00;12.98;;;11.88;;
16593;SDS011;8410;52.532;13.336;2022-08-19T13:49:33;12.80;;;11.50;;
16593;SDS011;8410;52.532;13.336;2022-08-19T13:52:03;13.25;;;12.15;;
16593;SDS011;8410;52.532;13.336;2022-08-19T13:54:31;13.07;;;12.07;;
16593;SDS011;8410;52.532;13.336;2022-08-19T13:56:59;12.73;;;11.73;;
16593;SDS011;8410;52.532;13.336;2022-08-19T13:59:27;13.70;;;12.35;;
16593;SDS011;8410;52.532;13.336;2022-08-19T14:01:57;13.25;;;12.15;;
16593;SDS011;8410;52.532;13.336;2022-08-19T14:04:26;12.15;;;11.25;;
16593;SDS011;8410;52.532;13.336;2022-08-19T14:06:55;13.13;;;12.02;;
16593;SDS011;8410;52.532;13.336;2022-08-19T14:09:23;12.57;;;11.63;;
16593;SDS011;8410;52.532;13.336;2022-08-19T14:11:51;13.32;;;12.20;;
16593;SDS011;8410;52.532;13.336;2022-08-19T14:14:19;12.23;;;11.23;;
16593;SDS011;8410;52.532;13.336;2022-08-19T14:16:47;13.23;;;12.25;;
16593;SDS011;8410;52.532;13.336;2022-08-19T14:19:17;12.63;;;11.63;;
16593;SDS011;8410;52.532;13.336;2022-08-19T14:21:47;12.30;;;11.40;;
16593;SDS011;8410;52.532;13.336;2022-08-19T14:24:15;12.07;;;11.07;;
16593;SDS011;8410;52.532;13.336;2022-08-19T14:26:43;12.95;;;11.75;;
16593;SDS011;8410;52.532;13.336;2022-08-19T14:29:10;11.98;;;10.98;;
16593;SDS011;8410;52.532;13.336;2022-08-19T14:31:38;11.82;;;10.75;;
16593;SDS011;8410;52.532;13.336;2022-08-19T14:34:08;11.88;;;10.93;;
16593;SDS011;8410;52.532;13.336;2022-08-19T14:36:38;12.10;;;11.20;;
16593;SDS011;8410;52.532;13.336;2022-08-19T14:39:09;11.80;;;10.85;;
16593;SDS011;8410;52.532;13.336;2022-08-19T14:41:39;12.00;;;10.80;;
16593;SDS011;8410;52.532;13.336;2022-08-19T14:44:08;12.23;;;11.35;;
16593;SDS011;8410;52.532;13.336;2022-08-19T14:46:38;12.15;;;11.13;;
16593;SDS011;8410;52.532;13.336;2022-08-19T14:49:14;12.27;;;11.25;;